sensor_id;sensor_type;location;lat;lon;timestamp;pressure;altitude;pressure_sealevel;temperature;humidity
16255;BME280;8235;52.198;9.904;2023-04-10T00:01:07;101684.44;;;4.78;86.59
16255;BME280;8235;52.198;9.904;2023-04-10T00:03:35;101684.47;;;4.76;86.38
16255;BME280;8235;52.198;9.904;2023-04-10T00:06:01;101691.59;;;4.73;86.69
16255;BME280;8235;52.198;9.904;2023-04-10T00:08:28;101689.06;;;4.68;86.05
16255;BME280;8235;52.198;9.904;2023-04-10T00:10:56;101688.34;;;4.62;86.05
16255;BME280;8235;52.198;9.904;2023-04-10T00:13:22;101696.41;;;4.54;85.80
16255;BME280;8235;52.198;9.904;2023-04-10T00:15:49;101692.19;;;4.47;85.91
16255;BME280;8235;52.198;9.904;2023-04-10T00:18:15;101695.78;;;4.43;85.81
16255;BME280;8235;52.198;9.904;2023-04-10T00:20:46;101693.19;;;4.41;86.20
16255;BME280;8235;52.198;9.904;2023-04-10T00:23:13;101692.31;;;4.41;85.88
16255;BME280;8235;52.198;9.904;2023-04-10T00:25:39;101694.06;;;4.40;86.06
16255;BME280;8235;52.198;9.904;2023-04-10T00:28:06;101694.94;;;4.41;86.13
16255;BME280;8235;52.198;9.904;2023-04-10T00:30:35;101692.38;;;4.38;86.83
16255;BME280;8235;52.198;9.904;2023-04-10T00:33:02;101686.25;;;4.36;85.79
16255;BME280;8235;52.198;9.904;2023-04-10T00:35:32;101684.56;;;4.32;86.11
16255;BME280;8235;52.198;9.904;2023-04-10T00:37:59;101682.03;;;4.29;86.66
16255;BME280;8235;52.198;9.904;2023-04-10T00:40:26;101675.06;;;4.25;86.48
16255;BME280;8235;52.198;9.904;2023-04-10T00:42:54;101678.66;;;4.22;86.29
16255;BME280;8235;52.198;9.904;2023-04-10T00:45:21;101675.16;;;4.20;86.93
16255;BME280;8235;52.198;9.904;2023-04-10T00:47:47;101669.94;;;4.17;87.18
16255;BME280;8235;52.198;9.904;2023-04-10T00:50:14;101666.50;;;4.13;86.73
16255;BME280;8235;52.198;9.904;2023-04-10T00:52:40;101659.63;;;4.08;86.99
16255;BME280;8235;52.198;9.904;2023-04-10T00:55:11;101659.69;;;4.03;87.08
16255;BME280;8235;52.198;9.904;2023-04-10T00:57:38;101660.66;;;3.99;87.48
16255;BME280;8235;52.198;9.904;2023-04-10T01:00:07;101659.88;;;3.94;87.36
16255;BME280;8235;52.198;9.904;2023-04-10T01:02:34;101670.47;;;3.93;87.84
16255;BME280;8235;52.198;9.904;2023-04-10T01:05:00;101659.97;;;3.90;87.37
16255;BME280;8235;52.198;9.904;2023-04-10T01:07:37;101666.16;;;3.89;87.49
16255;BME280;8235;52.198;9.904;2023-04-10T01:10:14;101670.56;;;3.87;87.63
16255;BME280;8235;52.198;9.904;2023-04-10T01:12:52;101669.72;;;3.86;88.07
16255;BME280;8235;52.198;9.904;2023-04-10T01:15:22;101661.81;;;3.86;88.57
16255;BME280;8235;52.198;9.904;2023-04-10T01:17:56;101664.44;;;3.86;88.52
16255;BME280;8235;52.198;9.904;2023-04-10T01:20:28;101672.34;;;3.86;88.82
16255;BME280;8235;52.198;9.904;2023-04-10T01:23:17;101671.50;;;3.84;88.40
16255;BME280;8235;52.198;9.904;2023-04-10T01:25:53;101673.28;;;3.82;87.91
16255;BME280;8235;52.198;9.904;2023-04-10T01:28:57;101675.25;;;3.72;87.51
16255;BME280;8235;52.198;9.904;2023-04-10T01:31:30;101676.31;;;3.62;86.88
16255;BME280;8235;52.198;9.904;2023-04-10T01:34:04;101675.53;;;3.57;87.67
16255;BME280;8235;52.198;9.904;2023-04-10T01:36:35;101669.47;;;3.52;86.87
16255;BME280;8235;52.198;9.904;2023-04-10T01:39:02;101675.69;;;3.48;87.89
16255;BME280;8235;52.198;9.904;2023-04-10T01:41:30;101669.56;;;3.46;87.68
16255;BME280;8235;52.198;9.904;2023-04-10T01:44:01;101674.00;;;3.44;88.19
16255;BME280;8235;52.198;9.904;2023-04-10T01:46:28;101675.78;;;3.42;88.29
16255;BME280;8235;52.198;9.904;2023-04-10T01:49:00;101670.53;;;3.40;87.96
16255;BME280;8235;52.198;9.904;2023-04-10T01:51:29;101666.19;;;3.39;88.32
16255;BME280;8235;52.198;9.904;2023-04-10T01:53:57;101667.97;;;3.39;88.36
16255;BME280;8235;52.198;9.904;2023-04-10T01:56:25;101670.63;;;3.37;88.86
16255;BME280;8235;52.198;9.904;2023-04-10T01:58:52;101661.84;;;3.37;88.82
16255;BME280;8235;52.198;9.904;2023-04-10T02:01:20;101656.59;;;3.35;88.70
16255;BME280;8235;52.198;9.904;2023-04-10T02:03:47;101660.13;;;3.34;89.36
16255;BME280;8235;52.198;9.904;2023-04-10T02:06:19;101654.06;;;3.31;89.18
16255;BME280;8235;52.198;9.904;2023-04-10T02:08:51;101657.56;;;3.30;89.04
16255;BME280;8235;52.198;9.904;2023-04-10T02:11:25;101654.94;;;3.30;89.72
16255;BME280;8235;52.198;9.904;2023-04-10T02:13:59;101648.81;;;3.29;89.18
16255;BME280;8235;52.198;9.904;2023-04-10T02:16:28;101648.88;;;3.25;89.09
16255;BME280;8235;52.198;9.904;2023-04-10T02:18:58;101648.09;;;3.21;89.23
16255;BME280;8235;52.198;9.904;2023-04-10T02:21:25;101642.88;;;3.18;88.88
16255;BME280;8235;52.198;9.904;2023-04-10T02:23:53;101639.41;;;3.16;88.71
16255;BME280;8235;52.198;9.904;2023-04-10T02:26:21;101639.44;;;3.13;88.94
16255;BME280;8235;52.198;9.904;2023-04-10T02:28:47;101642.09;;;3.11;89.52
16255;BME280;8235;52.198;9.904;2023-04-10T02:31:14;101637.75;;;3.09;88.80
16255;BME280;8235;52.198;9.904;2023-04-10T02:33:42;101639.53;;;3.07;88.77
16255;BME280;8235;52.198;9.904;2023-04-10T02:36:08;101627.34;;;3.03;89.18
16255;BME280;8235;52.198;9.904;2023-04-10T02:38:35;101630.00;;;3.01;89.34
16255;BME280;8235;52.198;9.904;2023-04-10T02:41:01;101623.94;;;2.96;88.55
16255;BME280;8235;52.198;9.904;2023-04-10T02:43:28;101619.59;;;2.94;89.16
16255;BME280;8235;52.198;9.904;2023-04-10T02:45:54;101613.47;;;2.92;89.14
16255;BME280;8235;52.198;9.904;2023-04-10T02:48:21;101625.78;;;2.90;89.06
16255;BME280;8235;52.198;9.904;2023-04-10T02:50:55;101618.81;;;2.87;88.67
16255;BME280;8235;52.198;9.904;2023-04-10T02:53:21;101616.25;;;2.84;88.58
16255;BME280;8235;52.198;9.904;2023-04-10T02:55:51;101615.41;;;2.82;88.71
16255;BME280;8235;52.198;9.904;2023-04-10T02:58:17;101611.06;;;2.79;89.23
16255;BME280;8235;52.198;9.904;2023-04-10T03:00:47;101607.56;;;2.77;88.65
16255;BME280;8235;52.198;9.904;2023-04-10T03:03:13;101612.88;;;2.74;88.55
16255;BME280;8235;52.198;9.904;2023-04-10T03:05:40;101610.28;;;2.71;88.80
16255;BME280;8235;52.198;9.904;2023-04-10T03:08:08;101605.06;;;2.70;89.07
16255;BME280;8235;52.198;9.904;2023-04-10T03:10:34;101606.00;;;2.67;88.77
16255;BME280;8235;52.198;9.904;2023-04-10T03:13:01;101599.88;;;2.65;89.06
16255;BME280;8235;52.198;9.904;2023-04-10T03:15:27;101603.41;;;2.64;89.34
16255;BME280;8235;52.198;9.904;2023-04-10T03:17:53;101612.19;;;2.63;89.43
16255;BME280;8235;52.198;9.904;2023-04-10T03:20:20;101599.94;;;2.62;89.17
16255;BME280;8235;52.198;9.904;2023-04-10T03:22:47;101595.59;;;2.60;90.10
16255;BME280;8235;52.198;9.904;2023-04-10T03:25:16;101603.50;;;2.58;90.03
16255;BME280;8235;52.198;9.904;2023-04-10T03:27:42;101602.63;;;2.58;90.19
16255;BME280;8235;52.198;9.904;2023-04-10T03:30:10;101599.16;;;2.56;89.82
16255;BME280;8235;52.198;9.904;2023-04-10T03:32:36;101593.91;;;2.54;89.91
16255;BME280;8235;52.198;9.904;2023-04-10T03:35:03;101584.28;;;2.53;90.18
16255;BME280;8235;52.198;9.904;2023-04-10T03:37:30;101588.66;;;2.53;90.03
16255;BME280;8235;52.198;9.904;2023-04-10T03:39:57;101586.06;;;2.51;90.33
16255;BME280;8235;52.198;9.904;2023-04-10T03:42:25;101581.75;;;2.49;90.56
16255;BME280;8235;52.198;9.904;2023-04-10T03:44:52;101584.38;;;2.49;90.55
16255;BME280;8235;52.198;9.904;2023-04-10T03:47:18;101579.16;;;2.46;90.24
16255;BME280;8235;52.198;9.904;2023-04-10T03:49:45;101580.06;;;2.43;90.21
16255;BME280;8235;52.198;9.904;2023-04-10T03:52:11;101576.63;;;2.39;90.26
16255;BME280;8235;52.198;9.904;2023-04-10T03:54:38;101582.75;;;2.38;90.66
16255;BME280;8235;52.198;9.904;2023-04-10T03:57:04;101569.66;;;2.35;90.29
16255;BME280;8235;52.198;9.904;2023-04-10T03:59:32;101570.63;;;2.30;90.51
16255;BME280;8235;52.198;9.904;2023-04-10T04:01:58;101583.81;;;2.27;90.86
16255;BME280;8235;52.198;9.904;2023-04-10T04:04:25;101583.91;;;2.19;90.70
16255;BME280;8235;52.198;9.904;2023-04-10T04:06:52;101586.56;;;2.16;91.32
16255;BME280;8235;52.198;9.904;2023-04-10T04:09:18;101588.41;;;2.13;91.25
16255;BME280;8235;52.198;9.904;2023-04-10T04:11:45;101584.06;;;2.10;91.28
16255;BME280;8235;52.198;9.904;2023-04-10T04:14:12;101584.09;;;2.07;91.79
16255;BME280;8235;52.198;9.904;2023-04-10T04:16:40;101583.22;;;2.06;91.63
16255;BME280;8235;52.198;9.904;2023-04-10T04:19:06;101587.63;;;2.04;91.53
16255;BME280;8235;52.198;9.904;2023-04-10T04:21:33;101585.00;;;2.04;91.23
16255;BME280;8235;52.198;9.904;2023-04-10T04:24:00;101580.66;;;2.02;91.97
16255;BME280;8235;52.198;9.904;2023-04-10T04:26:26;101573.66;;;2.01;92.04
16255;BME280;8235;52.198;9.904;2023-04-10T04:28:52;101580.66;;;2.00;92.18
16255;BME280;8235;52.198;9.904;2023-04-10T04:31:19;101581.56;;;1.98;92.22
16255;BME280;8235;52.198;9.904;2023-04-10T04:33:47;101585.94;;;1.99;92.09
16255;BME280;8235;52.198;9.904;2023-04-10T04:36:13;101578.13;;;1.94;91.78
16255;BME280;8235;52.198;9.904;2023-04-10T04:38:41;101579.97;;;1.86;91.54
16255;BME280;8235;52.198;9.904;2023-04-10T04:41:07;101587.03;;;1.81;91.69
16255;BME280;8235;52.198;9.904;2023-04-10T04:43:34;101581.81;;;1.80;91.53
16255;BME280;8235;52.198;9.904;2023-04-10T04:46:00;101587.09;;;1.78;91.73
16255;BME280;8235;52.198;9.904;2023-04-10T04:48:27;101588.00;;;1.77;92.33
16255;BME280;8235;52.198;9.904;2023-04-10T04:50:54;101577.50;;;1.77;92.08
16255;BME280;8235;52.198;9.904;2023-04-10T04:53:21;101586.25;;;1.78;92.59
16255;BME280;8235;52.198;9.904;2023-04-10T04:55:47;101592.38;;;1.75;92.10
16255;BME280;8235;52.198;9.904;2023-04-10T04:58:14;101586.31;;;1.71;92.10
16255;BME280;8235;52.198;9.904;2023-04-10T05:00:40;101588.94;;;1.70;92.27
16255;BME280;8235;52.198;9.904;2023-04-10T05:03:07;101589.81;;;1.72;92.34
16255;BME280;8235;52.198;9.904;2023-04-10T05:05:33;101590.66;;;1.72;92.51
16255;BME280;8235;52.198;9.904;2023-04-10T05:08:01;101583.63;;;1.76;93.33
16255;BME280;8235;52.198;9.904;2023-04-10T05:10:27;101584.47;;;1.78;92.83
16255;BME280;8235;52.198;9.904;2023-04-10T05:12:54;101580.06;;;1.80;92.83
16255;BME280;8235;52.198;9.904;2023-04-10T05:15:21;101573.91;;;1.83;93.29
16255;BME280;8235;52.198;9.904;2023-04-10T05:17:48;101592.22;;;1.87;93.64
16255;BME280;8235;52.198;9.904;2023-04-10T05:20:15;101581.69;;;1.90;93.62
16255;BME280;8235;52.198;9.904;2023-04-10T05:22:41;101585.16;;;1.92;94.01
16255;BME280;8235;52.198;9.904;2023-04-10T05:25:09;101583.31;;;1.97;93.46
16255;BME280;8235;52.198;9.904;2023-04-10T05:27:36;101586.78;;;2.01;93.85
16255;BME280;8235;52.198;9.904;2023-04-10T05:30:03;101599.88;;;2.05;93.99
16255;BME280;8235;52.198;9.904;2023-04-10T05:32:30;101587.56;;;2.09;94.15
16255;BME280;8235;52.198;9.904;2023-04-10T05:34:56;101584.03;;;2.13;94.92
16255;BME280;8235;52.198;9.904;2023-04-10T05:37:23;101589.19;;;2.18;94.21
16255;BME280;8235;52.198;9.904;2023-04-10T05:39:49;101583.00;;;2.22;95.18
16255;BME280;8235;52.198;9.904;2023-04-10T05:42:17;101582.03;;;2.29;94.81
16255;BME280;8235;52.198;9.904;2023-04-10T05:44:43;101578.38;;;2.37;95.57
16255;BME280;8235;52.198;9.904;2023-04-10T05:47:10;101575.63;;;2.48;96.82
16255;BME280;8235;52.198;9.904;2023-04-10T05:49:36;101571.06;;;2.58;96.56
16255;BME280;8235;52.198;9.904;2023-04-10T05:52:03;101578.72;;;2.71;97.48
16255;BME280;8235;52.198;9.904;2023-04-10T05:54:29;101575.84;;;2.87;99.08
16255;BME280;8235;52.198;9.904;2023-04-10T05:56:56;101585.25;;;3.01;98.74
16255;BME280;8235;52.198;9.904;2023-04-10T05:59:24;101582.44;;;3.12;99.38
16255;BME280;8235;52.198;9.904;2023-04-10T06:01:50;101582.28;;;3.21;99.83
16255;BME280;8235;52.198;9.904;2023-04-10T06:04:16;101583.84;;;3.30;99.24
16255;BME280;8235;52.198;9.904;2023-04-10T06:06:43;101588.06;;;3.40;99.86
16255;BME280;8235;52.198;9.904;2023-04-10T06:09:09;101584.38;;;3.48;100.00
16255;BME280;8235;52.198;9.904;2023-04-10T06:11:36;101592.16;;;3.56;99.97
16255;BME280;8235;52.198;9.904;2023-04-10T06:14:02;101587.56;;;3.66;100.00
16255;BME280;8235;52.198;9.904;2023-04-10T06:16:30;101586.47;;;3.76;99.96
16255;BME280;8235;52.198;9.904;2023-04-10T06:18:56;101579.22;;;3.87;100.00
16255;BME280;8235;52.198;9.904;2023-04-10T06:21:23;101579.78;;;4.01;100.00
16255;BME280;8235;52.198;9.904;2023-04-10T06:23:50;101575.97;;;4.14;100.00
16255;BME280;8235;52.198;9.904;2023-04-10T06:26:16;101580.94;;;4.30;100.00
16255;BME280;8235;52.198;9.904;2023-04-10T06:28:43;101582.38;;;4.43;100.00
16255;BME280;8235;52.198;9.904;2023-04-10T06:31:11;101580.28;;;4.57;100.00
16255;BME280;8235;52.198;9.904;2023-04-10T06:33:39;101576.31;;;4.75;100.00
16255;BME280;8235;52.198;9.904;2023-04-10T06:36:06;101568.88;;;4.91;100.00
16255;BME280;8235;52.198;9.904;2023-04-10T06:38:33;101564.03;;;5.08;100.00
16255;BME280;8235;52.198;9.904;2023-04-10T06:41:02;101557.44;;;5.24;100.00
16255;BME280;8235;52.198;9.904;2023-04-10T06:43:28;101563.13;;;5.41;100.00
16255;BME280;8235;52.198;9.904;2023-04-10T06:45:56;101555.63;;;5.57;100.00
16255;BME280;8235;52.198;9.904;2023-04-10T06:48:22;101555.28;;;5.71;100.00
16255;BME280;8235;52.198;9.904;2023-04-10T06:50:50;101555.81;;;5.82;100.00
16255;BME280;8235;52.198;9.904;2023-04-10T06:53:17;101557.94;;;6.00;100.00
16255;BME280;8235;52.198;9.904;2023-04-10T06:55:43;101545.13;;;6.16;100.00
16255;BME280;8235;52.198;9.904;2023-04-10T06:58:10;101549.75;;;6.37;100.00
16255;BME280;8235;52.198;9.904;2023-04-10T07:00:37;101549.09;;;6.57;100.00
16255;BME280;8235;52.198;9.904;2023-04-10T07:03:03;101552.78;;;6.79;100.00
16255;BME280;8235;52.198;9.904;2023-04-10T07:05:30;101542.31;;;7.01;100.00
16255;BME280;8235;52.198;9.904;2023-04-10T07:07:57;101539.78;;;7.23;100.00
16255;BME280;8235;52.198;9.904;2023-04-10T07:10:24;101544.22;;;7.47;97.84
16255;BME280;8235;52.198;9.904;2023-04-10T07:12:51;101529.94;;;7.75;95.91
16255;BME280;8235;52.198;9.904;2023-04-10T07:15:17;101535.13;;;8.01;92.59
16255;BME280;8235;52.198;9.904;2023-04-10T07:17:44;101528.84;;;8.25;90.48
16255;BME280;8235;52.198;9.904;2023-04-10T07:20:10;101520.72;;;8.52;87.52
16255;BME280;8235;52.198;9.904;2023-04-10T07:22:37;101522.44;;;8.75;83.74
16255;BME280;8235;52.198;9.904;2023-04-10T07:25:06;101523.19;;;8.98;80.16
16255;BME280;8235;52.198;9.904;2023-04-10T07:27:33;101514.22;;;9.21;76.85
16255;BME280;8235;52.198;9.904;2023-04-10T07:29:59;101516.78;;;9.43;74.28
16255;BME280;8235;52.198;9.904;2023-04-10T07:32:26;101511.44;;;9.63;72.26
16255;BME280;8235;52.198;9.904;2023-04-10T07:34:52;101513.88;;;9.87;70.63
16255;BME280;8235;52.198;9.904;2023-04-10T07:37:18;101503.22;;;10.05;69.14
16255;BME280;8235;52.198;9.904;2023-04-10T07:39:45;101502.31;;;10.25;67.53
16255;BME280;8235;52.198;9.904;2023-04-10T07:42:13;101502.34;;;10.42;65.35
16255;BME280;8235;52.198;9.904;2023-04-10T07:44:39;101509.50;;;10.59;64.88
16255;BME280;8235;52.198;9.904;2023-04-10T07:47:06;101486.47;;;10.75;64.50
16255;BME280;8235;52.198;9.904;2023-04-10T07:49:32;101495.44;;;10.92;64.33
16255;BME280;8235;52.198;9.904;2023-04-10T07:51:59;101495.59;;;11.06;62.67
16255;BME280;8235;52.198;9.904;2023-04-10T07:54:25;101492.13;;;11.21;62.17
16255;BME280;8235;52.198;9.904;2023-04-10T07:56:52;101479.69;;;11.37;61.70
16255;BME280;8235;52.198;9.904;2023-04-10T07:59:20;101485.84;;;11.55;60.02
16255;BME280;8235;52.198;9.904;2023-04-10T08:01:46;101482.34;;;11.70;59.54
16255;BME280;8235;52.198;9.904;2023-04-10T08:04:12;101487.72;;;11.86;58.23
16255;BME280;8235;52.198;9.904;2023-04-10T08:06:39;101478.19;;;11.98;57.71
16255;BME280;8235;52.198;9.904;2023-04-10T08:09:05;101480.16;;;12.10;57.70
16255;BME280;8235;52.198;9.904;2023-04-10T08:11:34;101475.06;;;12.21;57.18
16255;BME280;8235;52.198;9.904;2023-04-10T08:14:02;101478.69;;;12.36;56.81
16255;BME280;8235;52.198;9.904;2023-04-10T08:16:32;101469.88;;;12.49;55.98
16255;BME280;8235;52.198;9.904;2023-04-10T08:19:00;101470.78;;;12.64;55.94
16255;BME280;8235;52.198;9.904;2023-04-10T08:21:27;101477.09;;;12.77;55.13
16255;BME280;8235;52.198;9.904;2023-04-10T08:23:57;101472.75;;;12.91;54.57
16255;BME280;8235;52.198;9.904;2023-04-10T08:26:25;101469.34;;;13.03;54.82
16255;BME280;8235;52.198;9.904;2023-04-10T08:28:53;101469.50;;;13.15;53.68
16255;BME280;8235;52.198;9.904;2023-04-10T08:31:22;101457.25;;;13.26;54.20
16255;BME280;8235;52.198;9.904;2023-04-10T08:33:50;101463.59;;;13.39;54.01
16255;BME280;8235;52.198;9.904;2023-04-10T08:36:17;101459.19;;;13.52;53.03
16255;BME280;8235;52.198;9.904;2023-04-10T08:38:44;101452.28;;;13.62;53.41
16255;BME280;8235;52.198;9.904;2023-04-10T08:41:13;101440.06;;;13.72;52.75
16255;BME280;8235;52.198;9.904;2023-04-10T08:43:40;101443.94;;;13.81;51.76
16255;BME280;8235;52.198;9.904;2023-04-10T08:46:07;101436.38;;;13.87;52.11
16255;BME280;8235;52.198;9.904;2023-04-10T08:48:37;101445.44;;;13.99;52.01
16255;BME280;8235;52.198;9.904;2023-04-10T08:51:06;101440.94;;;14.14;51.48
16255;BME280;8235;52.198;9.904;2023-04-10T08:53:39;101439.34;;;14.24;50.43
16255;BME280;8235;52.198;9.904;2023-04-10T08:56:06;101433.34;;;14.33;50.61
16255;BME280;8235;52.198;9.904;2023-04-10T08:58:34;101432.69;;;14.44;50.67
16255;BME280;8235;52.198;9.904;2023-04-10T09:01:00;101422.00;;;14.56;50.31
16255;BME280;8235;52.198;9.904;2023-04-10T09:03:27;101422.16;;;14.68;48.86
16255;BME280;8235;52.198;9.904;2023-04-10T09:05:53;101420.63;;;14.76;48.92
16255;BME280;8235;52.198;9.904;2023-04-10T09:08:21;101421.84;;;14.85;48.25
16255;BME280;8235;52.198;9.904;2023-04-10T09:10:48;101420.44;;;14.92;48.54
16255;BME280;8235;52.198;9.904;2023-04-10T09:13:14;101412.72;;;15.00;47.77
16255;BME280;8235;52.198;9.904;2023-04-10T09:15:57;101410.25;;;15.10;47.71
16255;BME280;8235;52.198;9.904;2023-04-10T09:18:39;101400.06;;;15.15;47.15
16255;BME280;8235;52.198;9.904;2023-04-10T09:21:07;101410.13;;;15.24;46.90
16255;BME280;8235;52.198;9.904;2023-04-10T09:23:35;101412.06;;;15.35;47.15
16255;BME280;8235;52.198;9.904;2023-04-10T09:26:08;101401.53;;;15.44;47.13
16255;BME280;8235;52.198;9.904;2023-04-10T09:28:55;101394.47;;;15.56;46.95
16255;BME280;8235;52.198;9.904;2023-04-10T09:31:27;101388.41;;;15.65;45.79
16255;BME280;8235;52.198;9.904;2023-04-10T09:34:06;101373.91;;;15.68;45.40
16255;BME280;8235;52.198;9.904;2023-04-10T09:36:32;101370.16;;;15.70;45.53
16255;BME280;8235;52.198;9.904;2023-04-10T09:39:00;101366.16;;;15.76;45.58
16255;BME280;8235;52.198;9.904;2023-04-10T09:41:27;101363.34;;;15.77;45.07
16255;BME280;8235;52.198;9.904;2023-04-10T09:44:04;101348.59;;;15.83;45.35
16255;BME280;8235;52.198;9.904;2023-04-10T09:46:32;101346.44;;;15.88;45.16
16255;BME280;8235;52.198;9.904;2023-04-10T09:48:59;101335.09;;;15.95;44.20
16255;BME280;8235;52.198;9.904;2023-04-10T09:51:29;101333.06;;;15.99;44.36
16255;BME280;8235;52.198;9.904;2023-04-10T09:53:56;101328.19;;;16.04;44.50
16255;BME280;8235;52.198;9.904;2023-04-10T09:56:25;101328.59;;;16.11;44.28
16255;BME280;8235;52.198;9.904;2023-04-10T09:58:56;101322.50;;;16.20;44.33
16255;BME280;8235;52.198;9.904;2023-04-10T10:01:25;101327.44;;;16.26;43.88
16255;BME280;8235;52.198;9.904;2023-04-10T10:03:53;101308.13;;;16.32;43.83
16255;BME280;8235;52.198;9.904;2023-04-10T10:06:20;101301.31;;;16.39;43.43
16255;BME280;8235;52.198;9.904;2023-04-10T10:08:48;101299.25;;;16.43;43.70
16255;BME280;8235;52.198;9.904;2023-04-10T10:11:17;101289.97;;;16.47;42.51
16255;BME280;8235;52.198;9.904;2023-04-10T10:13:49;101283.75;;;16.46;42.66
16255;BME280;8235;52.198;9.904;2023-04-10T10:16:19;101282.03;;;16.45;42.45
16255;BME280;8235;52.198;9.904;2023-04-10T10:18:50;101288.84;;;16.49;43.47
16255;BME280;8235;52.198;9.904;2023-04-10T10:21:20;101275.69;;;16.57;43.53
16255;BME280;8235;52.198;9.904;2023-04-10T10:23:48;101285.03;;;16.64;43.14
16255;BME280;8235;52.198;9.904;2023-04-10T10:26:18;101277.53;;;16.68;41.22
16255;BME280;8235;52.198;9.904;2023-04-10T10:28:46;101277.66;;;16.66;41.93
16255;BME280;8235;52.198;9.904;2023-04-10T10:31:13;101275.13;;;16.65;41.11
16255;BME280;8235;52.198;9.904;2023-04-10T10:33:42;101270.72;;;16.64;40.79
16255;BME280;8235;52.198;9.904;2023-04-10T10:36:10;101256.63;;;16.60;41.13
16255;BME280;8235;52.198;9.904;2023-04-10T10:38:39;101263.63;;;16.63;41.27
16255;BME280;8235;52.198;9.904;2023-04-10T10:41:11;101251.78;;;16.65;41.34
16255;BME280;8235;52.198;9.904;2023-04-10T10:43:51;101246.88;;;16.71;41.32
16255;BME280;8235;52.198;9.904;2023-04-10T10:46:23;101239.41;;;16.74;40.54
16255;BME280;8235;52.198;9.904;2023-04-10T10:48:55;101237.69;;;16.73;40.43
16255;BME280;8235;52.198;9.904;2023-04-10T10:51:22;101226.69;;;16.76;40.75
16255;BME280;8235;52.198;9.904;2023-04-10T10:53:49;101223.66;;;16.81;40.81
16255;BME280;8235;52.198;9.904;2023-04-10T10:56:35;101222.16;;;16.88;41.41
16255;BME280;8235;52.198;9.904;2023-04-10T10:59:02;101212.50;;;16.96;40.91
16255;BME280;8235;52.198;9.904;2023-04-10T11:01:29;101204.75;;;17.03;40.52
16255;BME280;8235;52.198;9.904;2023-04-10T11:03:56;101202.44;;;17.10;40.08
16255;BME280;8235;52.198;9.904;2023-04-10T11:06:48;101196.44;;;17.17;40.24
16255;BME280;8235;52.198;9.904;2023-04-10T11:09:48;101186.75;;;17.26;40.47
16255;BME280;8235;52.198;9.904;2023-04-10T11:12:17;101186.38;;;17.30;39.39
16255;BME280;8235;52.198;9.904;2023-04-10T11:14:56;101172.78;;;17.32;39.09
16255;BME280;8235;52.198;9.904;2023-04-10T11:17:47;101170.34;;;17.29;39.40
16255;BME280;8235;52.198;9.904;2023-04-10T11:20:15;101164.69;;;17.32;39.65
16255;BME280;8235;52.198;9.904;2023-04-10T11:23:07;101160.16;;;17.32;38.96
16255;BME280;8235;52.198;9.904;2023-04-10T11:25:48;101153.69;;;17.35;38.42
16255;BME280;8235;52.198;9.904;2023-04-10T11:28:33;101158.22;;;17.34;38.54
16255;BME280;8235;52.198;9.904;2023-04-10T11:31:15;101125.66;;;17.38;38.66
16255;BME280;8235;52.198;9.904;2023-04-10T11:33:44;101133.56;;;17.39;38.25
16255;BME280;8235;52.198;9.904;2023-04-10T11:36:13;101124.84;;;17.47;38.26
16255;BME280;8235;52.198;9.904;2023-04-10T11:38:52;101127.28;;;17.50;37.68
16255;BME280;8235;52.198;9.904;2023-04-10T11:41:19;101115.41;;;17.52;37.32
16255;BME280;8235;52.198;9.904;2023-04-10T11:43:50;101106.22;;;17.55;37.54
16255;BME280;8235;52.198;9.904;2023-04-10T11:46:19;101104.22;;;17.57;37.91
16255;BME280;8235;52.198;9.904;2023-04-10T11:48:45;101095.63;;;17.63;38.23
16255;BME280;8235;52.198;9.904;2023-04-10T11:51:13;101097.72;;;17.71;38.04
16255;BME280;8235;52.198;9.904;2023-04-10T11:53:40;101091.66;;;17.78;38.40
16255;BME280;8235;52.198;9.904;2023-04-10T11:56:17;101076.41;;;17.88;38.05
16255;BME280;8235;52.198;9.904;2023-04-10T11:58:48;101072.28;;;17.94;38.02
16255;BME280;8235;52.198;9.904;2023-04-10T12:01:14;101066.25;;;18.01;37.69
16255;BME280;8235;52.198;9.904;2023-04-10T12:03:42;101065.72;;;18.08;37.63
16255;BME280;8235;52.198;9.904;2023-04-10T12:06:11;101062.47;;;18.14;37.34
16255;BME280;8235;52.198;9.904;2023-04-10T12:08:39;101054.97;;;18.17;37.25
16255;BME280;8235;52.198;9.904;2023-04-10T12:11:06;101057.25;;;18.22;36.13
16255;BME280;8235;52.198;9.904;2023-04-10T12:13:33;101059.81;;;18.23;36.29
16255;BME280;8235;52.198;9.904;2023-04-10T12:16:01;101054.00;;;18.28;37.04
16255;BME280;8235;52.198;9.904;2023-04-10T12:18:29;101053.59;;;18.32;36.76
16255;BME280;8235;52.198;9.904;2023-04-10T12:20:57;101044.66;;;18.32;36.27
16255;BME280;8235;52.198;9.904;2023-04-10T12:23:25;101032.88;;;18.33;36.53
16255;BME280;8235;52.198;9.904;2023-04-10T12:25:53;101030.63;;;18.38;36.69
16255;BME280;8235;52.198;9.904;2023-04-10T12:28:30;101037.44;;;18.42;36.67
16255;BME280;8235;52.198;9.904;2023-04-10T12:30:57;101028.38;;;18.43;35.98
16255;BME280;8235;52.198;9.904;2023-04-10T12:33:24;101016.00;;;18.41;35.28
16255;BME280;8235;52.198;9.904;2023-04-10T12:35:51;101016.28;;;18.37;34.95
16255;BME280;8235;52.198;9.904;2023-04-10T12:38:34;101015.56;;;18.35;35.54
16255;BME280;8235;52.198;9.904;2023-04-10T12:41:02;101010.03;;;18.37;35.87
16255;BME280;8235;52.198;9.904;2023-04-10T12:43:30;101005.78;;;18.34;35.47
16255;BME280;8235;52.198;9.904;2023-04-10T12:45:57;101013.88;;;18.34;36.07
16255;BME280;8235;52.198;9.904;2023-04-10T12:48:24;101004.19;;;18.32;36.54
16255;BME280;8235;52.198;9.904;2023-04-10T12:50:51;101007.88;;;18.31;36.01
16255;BME280;8235;52.198;9.904;2023-04-10T12:53:17;101002.75;;;18.28;36.34
16255;BME280;8235;52.198;9.904;2023-04-10T12:55:57;101001.50;;;18.22;36.89
16255;BME280;8235;52.198;9.904;2023-04-10T12:58:24;100996.25;;;18.21;37.21
16255;BME280;8235;52.198;9.904;2023-04-10T13:00:53;100993.28;;;18.24;37.61
16255;BME280;8235;52.198;9.904;2023-04-10T13:03:20;101000.06;;;18.28;37.81
16255;BME280;8235;52.198;9.904;2023-04-10T13:05:47;100986.75;;;18.26;37.52
16255;BME280;8235;52.198;9.904;2023-04-10T13:08:13;100988.72;;;18.24;37.79
16255;BME280;8235;52.198;9.904;2023-04-10T13:10:40;100984.19;;;18.25;38.09
16255;BME280;8235;52.198;9.904;2023-04-10T13:13:09;100980.22;;;18.29;38.07